sensor_id;sensor_type;location;lat;lon;timestamp;P1;durP1;ratioP1;P2;durP2;ratioP2
34212;SDS011;20477;51.390;8.102;2023-04-03T00:00:48;9.90;;;6.60;;
34212;SDS011;20477;51.390;8.102;2023-04-03T00:03:18;8.32;;;6.47;;
34212;SDS011;20477;51.390;8.102;2023-04-03T00:05:47;13.30;;;7.25;;
34212;SDS011;20477;51.390;8.102;2023-04-03T00:08:15;12.38;;;6.00;;
34212;SDS011;20477;51.390;8.102;2023-04-03T00:10:43;12.70;;;6.68;;
34212;SDS011;20477;51.390;8.102;2023-04-03T00:13:11;9.90;;;6.40;;
34212;SDS011;20477;51.390;8.102;2023-04-03T00:15:40;13.60;;;6.45;;
34212;SDS011;20477;51.390;8.102;2023-04-03T00:18:08;12.77;;;7.13;;
34212;SDS011;20477;51.390;8.102;2023-04-03T00:20:38;11.98;;;6.68;;
34212;SDS011;20477;51.390;8.102;2023-04-03T00:23:06;7.38;;;5.68;;
34212;SDS011;20477;51.390;8.102;2023-04-03T00:25:34;9.45;;;4.38;;
34212;SDS011;20477;51.390;8.102;2023-04-03T00:28:02;8.43;;;5.32;;
34212;SDS011;20477;51.390;8.102;2023-04-03T00:30:31;9.13;;;4.63;;
34212;SDS011;20477;51.390;8.102;2023-04-03T00:33:00;6.07;;;4.43;;
34212;SDS011;20477;51.390;8.102;2023-04-03T00:35:28;7.07;;;4.45;;
34212;SDS011;20477;51.390;8.102;2023-04-03T00:37:58;8.25;;;4.82;;
34212;SDS011;20477;51.390;8.102;2023-04-03T00:40:32;12.07;;;5.05;;
34212;SDS011;20477;51.390;8.102;2023-04-03T00:43:02;15.75;;;6.32;;
34212;SDS011;20477;51.390;8.102;2023-04-03T00:45:39;8.07;;;5.95;;
34212;SDS011;20477;51.390;8.102;2023-04-03T00:48:10;8.00;;;6.00;;
34212;SDS011;20477;51.390;8.102;2023-04-03T00:50:40;11.65;;;6.00;;
34212;SDS011;20477;51.390;8.102;2023-04-03T00:53:11;8.32;;;5.88;;
34212;SDS011;20477;51.390;8.102;2023-04-03T00:55:43;9.75;;;5.40;;
34212;SDS011;20477;51.390;8.102;2023-04-03T00:58:12;9.10;;;5.65;;
34212;SDS011;20477;51.390;8.102;2023-04-03T01:00:41;8.65;;;6.00;;
34212;SDS011;20477;51.390;8.102;2023-04-03T01:03:10;14.02;;;6.53;;
34212;SDS011;20477;51.390;8.102;2023-04-03T01:05:39;11.05;;;5.90;;
34212;SDS011;20477;51.390;8.102;2023-04-03T01:08:07;14.35;;;5.65;;
34212;SDS011;20477;51.390;8.102;2023-04-03T01:10:37;12.95;;;7.20;;
34212;SDS011;20477;51.390;8.102;2023-04-03T01:13:17;11.50;;;5.57;;
34212;SDS011;20477;51.390;8.102;2023-04-03T01:15:46;12.13;;;6.53;;
34212;SDS011;20477;51.390;8.102;2023-04-03T01:18:15;9.32;;;5.53;;
34212;SDS011;20477;51.390;8.102;2023-04-03T01:20:47;9.55;;;5.10;;
34212;SDS011;20477;51.390;8.102;2023-04-03T01:23:40;12.50;;;5.78;;
34212;SDS011;20477;51.390;8.102;2023-04-03T01:26:15;9.93;;;5.38;;
34212;SDS011;20477;51.390;8.102;2023-04-03T01:28:43;7.45;;;5.70;;
34212;SDS011;20477;51.390;8.102;2023-04-03T01:31:13;13.38;;;5.63;;
34212;SDS011;20477;51.390;8.102;2023-04-03T01:33:47;10.45;;;6.55;;
34212;SDS011;20477;51.390;8.102;2023-04-03T01:36:16;11.20;;;5.90;;
34212;SDS011;20477;51.390;8.102;2023-04-03T01:38:46;7.43;;;4.72;;
34212;SDS011;20477;51.390;8.102;2023-04-03T01:41:15;10.90;;;5.75;;
34212;SDS011;20477;51.390;8.102;2023-04-03T01:43:43;13.82;;;5.63;;
34212;SDS011;20477;51.390;8.102;2023-04-03T01:46:11;10.00;;;5.85;;
34212;SDS011;20477;51.390;8.102;2023-04-03T01:48:40;10.57;;;5.38;;
34212;SDS011;20477;51.390;8.102;2023-04-03T01:51:09;12.40;;;5.43;;
34212;SDS011;20477;51.390;8.102;2023-04-03T01:53:38;6.65;;;5.20;;
34212;SDS011;20477;51.390;8.102;2023-04-03T01:56:06;10.70;;;5.35;;
34212;SDS011;20477;51.390;8.102;2023-04-03T01:58:34;8.40;;;4.95;;
34212;SDS011;20477;51.390;8.102;2023-04-03T02:01:03;8.73;;;5.15;;
34212;SDS011;20477;51.390;8.102;2023-04-03T02:03:31;10.00;;;5.30;;
34212;SDS011;20477;51.390;8.102;2023-04-03T02:05:59;9.02;;;4.55;;
34212;SDS011;20477;51.390;8.102;2023-04-03T02:08:29;11.10;;;4.90;;
34212;SDS011;20477;51.390;8.102;2023-04-03T02:10:57;8.73;;;4.20;;
34212;SDS011;20477;51.390;8.102;2023-04-03T02:13:25;7.72;;;4.15;;
34212;SDS011;20477;51.390;8.102;2023-04-03T02:15:53;9.13;;;3.92;;
34212;SDS011;20477;51.390;8.102;2023-04-03T02:18:21;5.25;;;3.70;;
34212;SDS011;20477;51.390;8.102;2023-04-03T02:20:49;9.45;;;4.07;;
34212;SDS011;20477;51.390;8.102;2023-04-03T02:23:17;7.85;;;4.25;;
34212;SDS011;20477;51.390;8.102;2023-04-03T02:25:47;11.77;;;4.05;;
34212;SDS011;20477;51.390;8.102;2023-04-03T02:28:15;5.10;;;3.50;;
34212;SDS011;20477;51.390;8.102;2023-04-03T02:30:43;8.95;;;4.10;;
34212;SDS011;20477;51.390;8.102;2023-04-03T02:33:12;6.97;;;4.07;;
34212;SDS011;20477;51.390;8.102;2023-04-03T02:35:40;7.30;;;3.97;;
34212;SDS011;20477;51.390;8.102;2023-04-03T02:38:08;8.98;;;3.63;;
34212;SDS011;20477;51.390;8.102;2023-04-03T02:40:36;10.52;;;4.30;;
34212;SDS011;20477;51.390;8.102;2023-04-03T02:43:06;8.00;;;4.22;;
34212;SDS011;20477;51.390;8.102;2023-04-03T02:45:34;6.10;;;3.65;;
34212;SDS011;20477;51.390;8.102;2023-04-03T02:48:02;7.97;;;3.47;;
34212;SDS011;20477;51.390;8.102;2023-04-03T02:50:31;8.60;;;4.63;;
34212;SDS011;20477;51.390;8.102;2023-04-03T02:53:00;16.50;;;3.92;;
34212;SDS011;20477;51.390;8.102;2023-04-03T02:55:28;11.05;;;4.00;;
34212;SDS011;20477;51.390;8.102;2023-04-03T02:57:56;8.13;;;3.83;;
34212;SDS011;20477;51.390;8.102;2023-04-03T03:00:27;6.28;;;3.70;;
34212;SDS011;20477;51.390;8.102;2023-04-03T03:02:55;12.68;;;4.43;;
34212;SDS011;20477;51.390;8.102;2023-04-03T03:05:23;6.88;;;3.83;;
34212;SDS011;20477;51.390;8.102;2023-04-03T03:07:51;10.05;;;3.50;;
34212;SDS011;20477;51.390;8.102;2023-04-03T03:10:20;7.53;;;3.03;;
34212;SDS011;20477;51.390;8.102;2023-04-03T03:12:48;7.70;;;2.95;;
34212;SDS011;20477;51.390;8.102;2023-04-03T03:15:17;3.75;;;2.97;;
34212;SDS011;20477;51.390;8.102;2023-04-03T03:17:47;7.28;;;3.08;;
34212;SDS011;20477;51.390;8.102;2023-04-03T03:20:15;14.35;;;3.30;;
34212;SDS011;20477;51.390;8.102;2023-04-03T03:22:43;8.13;;;3.40;;
34212;SDS011;20477;51.390;8.102;2023-04-03T03:25:11;9.93;;;3.45;;
34212;SDS011;20477;51.390;8.102;2023-04-03T03:27:39;5.25;;;2.78;;
34212;SDS011;20477;51.390;8.102;2023-04-03T03:30:08;6.07;;;3.72;;
34212;SDS011;20477;51.390;8.102;2023-04-03T03:32:36;7.22;;;3.38;;
34212;SDS011;20477;51.390;8.102;2023-04-03T03:35:06;8.50;;;3.30;;
34212;SDS011;20477;51.390;8.102;2023-04-03T03:37:34;8.18;;;3.10;;
34212;SDS011;20477;51.390;8.102;2023-04-03T03:40:03;6.55;;;2.60;;
34212;SDS011;20477;51.390;8.102;2023-04-03T03:42:31;7.43;;;2.65;;
34212;SDS011;20477;51.390;8.102;2023-04-03T03:44:59;4.75;;;2.55;;
34212;SDS011;20477;51.390;8.102;2023-04-03T03:47:27;4.75;;;2.90;;
34212;SDS011;20477;51.390;8.102;2023-04-03T03:49:55;8.43;;;2.45;;
34212;SDS011;20477;51.390;8.102;2023-04-03T03:52:25;5.20;;;3.08;;
34212;SDS011;20477;51.390;8.102;2023-04-03T03:54:53;9.48;;;3.28;;
34212;SDS011;20477;51.390;8.102;2023-04-03T03:57:21;5.03;;;2.50;;
34212;SDS011;20477;51.390;8.102;2023-04-03T03:59:50;5.72;;;2.33;;
34212;SDS011;20477;51.390;8.102;2023-04-03T04:02:19;6.80;;;3.10;;
34212;SDS011;20477;51.390;8.102;2023-04-03T04:04:48;4.93;;;2.85;;
34212;SDS011;20477;51.390;8.102;2023-04-03T04:07:16;8.52;;;2.70;;
34212;SDS011;20477;51.390;8.102;2023-04-03T04:09:46;6.60;;;2.80;;
34212;SDS011;20477;51.390;8.102;2023-04-03T04:12:14;4.95;;;2.40;;
34212;SDS011;20477;51.390;8.102;2023-04-03T04:14:43;9.38;;;2.85;;
34212;SDS011;20477;51.390;8.102;2023-04-03T04:17:12;10.60;;;3.28;;
34212;SDS011;20477;51.390;8.102;2023-04-03T04:19:41;8.45;;;3.38;;
34212;SDS011;20477;51.390;8.102;2023-04-03T04:22:09;8.27;;;3.22;;
34212;SDS011;20477;51.390;8.102;2023-04-03T04:24:37;8.38;;;2.83;;
34212;SDS011;20477;51.390;8.102;2023-04-03T04:27:06;9.50;;;2.90;;
34212;SDS011;20477;51.390;8.102;2023-04-03T04:29:34;9.57;;;3.00;;
34212;SDS011;20477;51.390;8.102;2023-04-03T04:32:03;16.77;;;3.53;;
34212;SDS011;20477;51.390;8.102;2023-04-03T04:34:31;10.23;;;3.20;;
34212;SDS011;20477;51.390;8.102;2023-04-03T04:37:00;9.85;;;3.45;;
34212;SDS011;20477;51.390;8.102;2023-04-03T04:39:28;11.50;;;2.60;;
34212;SDS011;20477;51.390;8.102;2023-04-03T04:41:56;8.60;;;3.13;;
34212;SDS011;20477;51.390;8.102;2023-04-03T04:44:25;8.48;;;3.50;;
34212;SDS011;20477;51.390;8.102;2023-04-03T04:46:54;9.85;;;3.40;;
34212;SDS011;20477;51.390;8.102;2023-04-03T04:49:22;7.35;;;3.10;;
34212;SDS011;20477;51.390;8.102;2023-04-03T04:51:50;8.32;;;3.47;;
34212;SDS011;20477;51.390;8.102;2023-04-03T04:54:18;5.65;;;2.75;;
34212;SDS011;20477;51.390;8.102;2023-04-03T04:56:46;8.93;;;3.05;;
34212;SDS011;20477;51.390;8.102;2023-04-03T04:59:14;5.97;;;3.35;;
34212;SDS011;20477;51.390;8.102;2023-04-03T05:01:47;11.05;;;3.30;;
34212;SDS011;20477;51.390;8.102;2023-04-03T05:04:15;10.75;;;3.80;;
34212;SDS011;20477;51.390;8.102;2023-04-03T05:06:44;11.85;;;3.72;;
34212;SDS011;20477;51.390;8.102;2023-04-03T05:09:12;17.48;;;3.85;;
34212;SDS011;20477;51.390;8.102;2023-04-03T05:11:40;12.82;;;5.03;;
34212;SDS011;20477;51.390;8.102;2023-04-03T05:14:09;12.15;;;5.20;;
34212;SDS011;20477;51.390;8.102;2023-04-03T05:16:37;10.80;;;5.68;;
34212;SDS011;20477;51.390;8.102;2023-04-03T05:19:07;9.60;;;4.97;;
34212;SDS011;20477;51.390;8.102;2023-04-03T05:21:35;13.55;;;5.22;;
34212;SDS011;20477;51.390;8.102;2023-04-03T05:24:04;7.32;;;4.63;;
34212;SDS011;20477;51.390;8.102;2023-04-03T05:26:35;11.95;;;5.43;;
34212;SDS011;20477;51.390;8.102;2023-04-03T05:29:03;17.05;;;5.60;;
34212;SDS011;20477;51.390;8.102;2023-04-03T05:31:31;13.70;;;5.30;;
34212;SDS011;20477;51.390;8.102;2023-04-03T05:33:59;12.07;;;6.32;;
34212;SDS011;20477;51.390;8.102;2023-04-03T05:36:29;7.13;;;5.50;;
34212;SDS011;20477;51.390;8.102;2023-04-03T05:38:57;12.75;;;6.05;;
34212;SDS011;20477;51.390;8.102;2023-04-03T05:41:25;14.13;;;8.27;;
34212;SDS011;20477;51.390;8.102;2023-04-03T05:43:54;10.30;;;6.68;;
34212;SDS011;20477;51.390;8.102;2023-04-03T05:46:22;6.60;;;4.07;;
34212;SDS011;20477;51.390;8.102;2023-04-03T05:48:50;17.30;;;6.63;;
34212;SDS011;20477;51.390;8.102;2023-04-03T05:51:19;22.73;;;9.88;;
34212;SDS011;20477;51.390;8.102;2023-04-03T05:53:51;11.00;;;6.45;;
34212;SDS011;20477;51.390;8.102;2023-04-03T05:58:50;7.25;;;3.70;;
34212;SDS011;20477;51.390;8.102;2023-04-03T06:01:18;5.82;;;3.80;;
34212;SDS011;20477;51.390;8.102;2023-04-03T06:03:46;13.45;;;4.07;;
34212;SDS011;20477;51.390;8.102;2023-04-03T06:06:14;8.65;;;4.47;;
34212;SDS011;20477;51.390;8.102;2023-04-03T06:08:43;16.15;;;3.45;;
34212;SDS011;20477;51.390;8.102;2023-04-03T06:11:13;10.40;;;4.22;;
34212;SDS011;20477;51.390;8.102;2023-04-03T06:13:42;9.23;;;3.55;;
34212;SDS011;20477;51.390;8.102;2023-04-03T06:16:10;9.30;;;3.55;;
34212;SDS011;20477;51.390;8.102;2023-04-03T06:18:41;10.30;;;3.97;;
34212;SDS011;20477;51.390;8.102;2023-04-03T06:21:10;14.45;;;4.20;;
34212;SDS011;20477;51.390;8.102;2023-04-03T06:23:38;13.15;;;3.97;;
34212;SDS011;20477;51.390;8.102;2023-04-03T06:26:07;14.82;;;7.00;;
34212;SDS011;20477;51.390;8.102;2023-04-03T06:28:36;8.90;;;4.28;;
34212;SDS011;20477;51.390;8.102;2023-04-03T06:31:04;8.88;;;4.03;;
34212;SDS011;20477;51.390;8.102;2023-04-03T06:33:32;10.88;;;4.63;;
34212;SDS011;20477;51.390;8.102;2023-04-03T06:36:03;20.95;;;4.38;;
34212;SDS011;20477;51.390;8.102;2023-04-03T06:38:31;7.60;;;4.03;;
34212;SDS011;20477;51.390;8.102;2023-04-03T06:41:00;9.77;;;3.70;;
34212;SDS011;20477;51.390;8.102;2023-04-03T06:43:28;6.65;;;3.88;;
34212;SDS011;20477;51.390;8.102;2023-04-03T06:46:01;9.52;;;3.35;;
34212;SDS011;20477;51.390;8.102;2023-04-03T06:48:29;17.80;;;3.70;;
34212;SDS011;20477;51.390;8.102;2023-04-03T06:50:58;7.32;;;3.30;;
34212;SDS011;20477;51.390;8.102;2023-04-03T06:53:26;12.40;;;3.10;;
34212;SDS011;20477;51.390;8.102;2023-04-03T06:55:54;6.90;;;2.97;;
34212;SDS011;20477;51.390;8.102;2023-04-03T06:58:22;10.52;;;3.05;;
34212;SDS011;20477;51.390;8.102;2023-04-03T07:00:50;10.20;;;2.70;;
34212;SDS011;20477;51.390;8.102;2023-04-03T07:03:19;8.07;;;3.17;;
34212;SDS011;20477;51.390;8.102;2023-04-03T07:05:48;7.03;;;2.60;;
34212;SDS011;20477;51.390;8.102;2023-04-03T07:08:17;11.43;;;2.22;;
34212;SDS011;20477;51.390;8.102;2023-04-03T07:10:45;6.57;;;2.20;;
34212;SDS011;20477;51.390;8.102;2023-04-03T07:13:13;6.38;;;2.58;;
34212;SDS011;20477;51.390;8.102;2023-04-03T07:15:41;8.20;;;1.95;;
34212;SDS011;20477;51.390;8.102;2023-04-03T07:18:09;9.15;;;2.13;;
34212;SDS011;20477;51.390;8.102;2023-04-03T07:20:39;6.22;;;2.15;;
34212;SDS011;20477;51.390;8.102;2023-04-03T07:23:07;8.43;;;2.25;;
34212;SDS011;20477;51.390;8.102;2023-04-03T07:25:36;4.45;;;1.98;;
34212;SDS011;20477;51.390;8.102;2023-04-03T07:28:09;11.10;;;2.33;;
34212;SDS011;20477;51.390;8.102;2023-04-03T07:30:42;7.95;;;1.88;;
34212;SDS011;20477;51.390;8.102;2023-04-03T07:33:11;4.63;;;2.40;;
34212;SDS011;20477;51.390;8.102;2023-04-03T07:35:41;6.05;;;2.13;;
34212;SDS011;20477;51.390;8.102;2023-04-03T07:38:10;10.68;;;2.25;;
34212;SDS011;20477;51.390;8.102;2023-04-03T07:40:39;5.85;;;1.95;;
34212;SDS011;20477;51.390;8.102;2023-04-03T07:43:07;3.80;;;1.40;;
34212;SDS011;20477;51.390;8.102;2023-04-03T07:45:35;8.25;;;1.52;;
34212;SDS011;20477;51.390;8.102;2023-04-03T07:48:04;12.25;;;2.72;;
34212;SDS011;20477;51.390;8.102;2023-04-03T07:50:32;5.78;;;1.90;;
34212;SDS011;20477;51.390;8.102;2023-04-03T07:53:02;3.90;;;1.60;;
34212;SDS011;20477;51.390;8.102;2023-04-03T07:55:31;6.55;;;1.88;;
34212;SDS011;20477;51.390;8.102;2023-04-03T07:58:00;7.50;;;2.28;;
34212;SDS011;20477;51.390;8.102;2023-04-03T08:00:29;9.88;;;2.72;;
34212;SDS011;20477;51.390;8.102;2023-04-03T08:02:57;6.43;;;1.45;;
34212;SDS011;20477;51.390;8.102;2023-04-03T08:05:26;5.55;;;1.80;;
34212;SDS011;20477;51.390;8.102;2023-04-03T08:07:54;7.10;;;2.47;;
34212;SDS011;20477;51.390;8.102;2023-04-03T08:10:23;9.85;;;2.72;;
34212;SDS011;20477;51.390;8.102;2023-04-03T08:12:52;8.63;;;2.10;;
34212;SDS011;20477;51.390;8.102;2023-04-03T08:15:20;7.20;;;2.20;;
34212;SDS011;20477;51.390;8.102;2023-04-03T08:17:48;7.57;;;2.10;;
34212;SDS011;20477;51.390;8.102;2023-04-03T08:20:17;6.80;;;2.75;;
34212;SDS011;20477;51.390;8.102;2023-04-03T08:22:45;3.78;;;1.83;;
34212;SDS011;20477;51.390;8.102;2023-04-03T08:25:13;6.10;;;1.88;;
34212;SDS011;20477;51.390;8.102;2023-04-03T08:27:43;7.78;;;2.17;;
34212;SDS011;20477;51.390;8.102;2023-04-03T08:30:12;4.80;;;1.70;;
34212;SDS011;20477;51.390;8.102;2023-04-03T08:32:40;6.38;;;2.33;;
34212;SDS011;20477;51.390;8.102;2023-04-03T08:35:09;6.88;;;1.88;;
34212;SDS011;20477;51.390;8.102;2023-04-03T08:37:38;7.55;;;2.03;;
34212;SDS011;20477;51.390;8.102;2023-04-03T08:40:08;8.23;;;2.42;;
34212;SDS011;20477;51.390;8.102;2023-04-03T08:42:42;5.68;;;1.88;;
34212;SDS011;20477;51.390;8.102;2023-04-03T08:45:17;8.05;;;2.20;;
34212;SDS011;20477;51.390;8.102;2023-04-03T08:47:49;6.25;;;2.25;;
34212;SDS011;20477;51.390;8.102;2023-04-03T08:50:24;2.83;;;1.50;;
34212;SDS011;20477;51.390;8.102;2023-04-03T08:52:56;11.85;;;4.55;;
34212;SDS011;20477;51.390;8.102;2023-04-03T08:55:26;3.97;;;2.20;;
34212;SDS011;20477;51.390;8.102;2023-04-03T08:57:59;7.07;;;1.77;;
34212;SDS011;20477;51.390;8.102;2023-04-03T09:00:30;4.60;;;1.35;;
34212;SDS011;20477;51.390;8.102;2023-04-03T09:03:02;9.02;;;1.80;;
34212;SDS011;20477;51.390;8.102;2023-04-03T09:05:33;6.70;;;1.70;;
34212;SDS011;20477;51.390;8.102;2023-04-03T09:08:06;2.00;;;1.20;;
34212;SDS011;20477;51.390;8.102;2023-04-03T09:10:40;4.30;;;1.15;;
34212;SDS011;20477;51.390;8.102;2023-04-03T09:13:12;4.18;;;1.35;;
34212;SDS011;20477;51.390;8.102;2023-04-03T09:15:46;4.15;;;1.50;;
34212;SDS011;20477;51.390;8.102;2023-04-03T09:18:15;2.33;;;1.75;;
34212;SDS011;20477;51.390;8.102;2023-04-03T09:20:49;7.93;;;1.70;;
34212;SDS011;20477;51.390;8.102;2023-04-03T09:23:22;5.00;;;1.63;;
34212;SDS011;20477;51.390;8.102;2023-04-03T09:25:56;7.65;;;1.58;;
34212;SDS011;20477;51.390;8.102;2023-04-03T09:28:31;3.53;;;1.60;;
34212;SDS011;20477;51.390;8.102;2023-04-03T09:31:16;3.88;;;1.60;;
34212;SDS011;20477;51.390;8.102;2023-04-03T09:33:47;5.85;;;1.40;;
34212;SDS011;20477;51.390;8.102;2023-04-03T09:39:10;9.90;;;1.10;;
34212;SDS011;20477;51.390;8.102;2023-04-03T09:41:40;1.98;;;1.17;;
34212;SDS011;20477;51.390;8.102;2023-04-03T09:44:22;1.42;;;1.17;;
34212;SDS011;20477;51.390;8.102;2023-04-03T09:46:52;3.03;;;1.33;;
34212;SDS011;20477;51.390;8.102;2023-04-03T09:49:20;1.98;;;1.17;;
34212;SDS011;20477;51.390;8.102;2023-04-03T09:51:48;6.70;;;1.40;;
34212;SDS011;20477;51.390;8.102;2023-04-03T09:57:04;1.42;;;0.88;;
34212;SDS011;20477;51.390;8.102;2023-04-03T09:59:40;2.63;;;1.20;;
34212;SDS011;20477;51.390;8.102;2023-04-03T10:02:22;4.25;;;0.80;;
34212;SDS011;20477;51.390;8.102;2023-04-03T10:04:57;3.92;;;1.20;;
34212;SDS011;20477;51.390;8.102;2023-04-03T10:07:35;3.95;;;1.35;;
34212;SDS011;20477;51.390;8.102;2023-04-03T10:10:19;2.63;;;1.40;;
34212;SDS011;20477;51.390;8.102;2023-04-03T10:13:03;3.83;;;1.38;;
34212;SDS011;20477;51.390;8.102;2023-04-03T10:15:39;5.38;;;1.52;;
34212;SDS011;20477;51.390;8.102;2023-04-03T10:18:26;9.32;;;1.38;;
34212;SDS011;20477;51.390;8.102;2023-04-03T10:20:59;5.18;;;1.38;;
34212;SDS011;20477;51.390;8.102;2023-04-03T10:23:33;2.35;;;1.17;;
34212;SDS011;20477;51.390;8.102;2023-04-03T10:26:08;1.48;;;1.10;;
34212;SDS011;20477;51.390;8.102;2023-04-03T10:28:45;1.67;;;1.23;;
34212;SDS011;20477;51.390;8.102;2023-04-03T10:31:21;3.22;;;1.20;;
34212;SDS011;20477;51.390;8.102;2023-04-03T10:33:56;3.30;;;1.05;;
34212;SDS011;20477;51.390;8.102;2023-04-03T10:36:32;3.20;;;1.27;;
34212;SDS011;20477;51.390;8.102;2023-04-03T10:39:08;2.83;;;1.40;;
34212;SDS011;20477;51.390;8.102;2023-04-03T10:41:47;2.33;;;1.35;;
34212;SDS011;20477;51.390;8.102;2023-04-03T10:44:40;3.08;;;1.00;;
34212;SDS011;20477;51.390;8.102;2023-04-03T10:47:28;2.08;;;1.17;;
34212;SDS011;20477;51.390;8.102;2023-04-03T10:50:20;4.65;;;1.25;;
34212;SDS011;20477;51.390;8.102;2023-04-03T10:52:53;2.90;;;1.33;;
34212;SDS011;20477;51.390;8.102;2023-04-03T10:55:29;2.22;;;1.20;;
34212;SDS011;20477;51.390;8.102;2023-04-03T10:58:02;5.63;;;1.67;;
34212;SDS011;20477;51.390;8.102;2023-04-03T11:00:34;4.35;;;1.63;;
34212;SDS011;20477;51.390;8.102;2023-04-03T11:03:06;5.43;;;1.75;;
34212;SDS011;20477;51.390;8.102;2023-04-03T11:05:40;6.22;;;1.60;;
34212;SDS011;20477;51.390;8.102;2023-04-03T11:08:13;3.70;;;1.40;;
34212;SDS011;20477;51.390;8.102;2023-04-03T11:10:47;1.48;;;0.80;;
34212;SDS011;20477;51.390;8.102;2023-04-03T11:13:18;1.95;;;1.38;;
34212;SDS011;20477;51.390;8.102;2023-04-03T11:15:49;3.87;;;1.50;;
34212;SDS011;20477;51.390;8.102;2023-04-03T11:18:20;4.95;;;1.98;;
34212;SDS011;20477;51.390;8.102;2023-04-03T11:20:56;6.28;;;1.50;;
34212;SDS011;20477;51.390;8.102;2023-04-03T11:23:28;4.55;;;0.82;;
34212;SDS011;20477;51.390;8.102;2023-04-03T11:26:12;5.63;;;1.60;;
34212;SDS011;20477;51.390;8.102;2023-04-03T11:28:42;3.38;;;1.30;;
34212;SDS011;20477;51.390;8.102;2023-04-03T11:31:22;5.43;;;1.83;;
34212;SDS011;20477;51.390;8.102;2023-04-03T11:34:00;1.65;;;1.05;;
34212;SDS011;20477;51.390;8.102;2023-04-03T11:36:34;2.45;;;1.30;;
34212;SDS011;20477;51.390;8.102;2023-04-03T11:41:37;3.13;;;1.50;;
34212;SDS011;20477;51.390;8.102;2023-04-03T11:44:12;2.35;;;1.10;;
34212;SDS011;20477;51.390;8.102;2023-04-03T11:46:57;5.38;;;1.63;;
34212;SDS011;20477;51.390;8.102;2023-04-03T11:55:51;6.65;;;1.50;;
34212;SDS011;20477;51.390;8.102;2023-04-03T11:58:22;3.80;;;1.15;;
34212;SDS011;20477;51.390;8.102;2023-04-03T12:00:52;1.55;;;1.20;;
34212;SDS011;20477;51.390;8.102;2023-04-03T12:06:48;4.78;;;1.42;;
34212;SDS011;20477;51.390;8.102;2023-04-03T12:09:28;5.10;;;1.50;;
34212;SDS011;20477;51.390;8.102;2023-04-03T12:12:31;2.88;;;1.30;;
34212;SDS011;20477;51.390;8.102;2023-04-03T12:21:06;5.80;;;1.45;;
34212;SDS011;20477;51.390;8.102;2023-04-03T12:23:36;7.22;;;1.85;;
34212;SDS011;20477;51.390;8.102;2023-04-03T12:26:22;8.32;;;1.98;;
34212;SDS011;20477;51.390;8.102;2023-04-03T12:29:10;7.40;;;1.38;;
34212;SDS011;20477;51.390;8.102;2023-04-03T12:31:45;6.40;;;1.60;;
34212;SDS011;20477;51.390;8.102;2023-04-03T12:34:24;6.82;;;1.30;;
34212;SDS011;20477;51.390;8.102;2023-04-03T12:37:02;2.00;;;1.25;;
34212;SDS011;20477;51.390;8.102;2023-04-03T12:39:44;4.00;;;1.67;;
34212;SDS011;20477;51.390;8.102;2023-04-03T12:42:29;4.22;;;1.48;;
34212;SDS011;20477;51.390;8.102;2023-04-03T12:45:17;3.45;;;1.85;;
34212;SDS011;20477;51.390;8.102;2023-04-03T12:47:48;4.35;;;1.17;;
34212;SDS011;20477;51.390;8.102;2023-04-03T12:50:18;3.55;;;1.45;;
34212;SDS011;20477;51.390;8.102;2023-04-03T12:52:52;4.30;;;1.40;;
34212;SDS011;20477;51.390;8.102;2023-04-03T12:55:25;4.80;;;1.35;;
34212;SDS011;20477;51.390;8.102;2023-04-03T12:57:54;4.60;;;1.75;;
34212;SDS011;20477;51.390;8.102;2023-04-03T13:00:30;5.80;;;1.60;;
34212;SDS011;20477;51.390;8.102;2023-04-03T13:03:01;3.53;;;1.20;;
34212;SDS011;20477;51.390;8.102;2023-04-03T13:05:31;8.65;;;1.65;;
34212;SDS011;20477;51.390;8.102;2023-04-03T13:08:03;1.63;;;1.10;;
34212;SDS011;20477;51.390;8.102;2023-04-03T13:10:35;3.28;;;1.23;;
34212;SDS011;20477;51.390;8.102;2023-04-03T13:13:16;6.03;;;2.25;;
34212;SDS011;20477;51.390;8.102;2023-04-03T13:15:45;6.07;;;1.83;;
34212;SDS011;20477;51.390;8.102;2023-04-03T13:18:25;4.82;;;1.85;;
34212;SDS011;20477;51.390;8.102;2023-04-03T13:20:57;3.60;;;1.60;;
34212;SDS011;20477;51.390;8.102;2023-04-03T13:23:28;4.20;;;1.80;;
34212;SDS011;20477;51.390;8.102;2023-04-03T13:25:59;3.50;;;1.48;;
34212;SDS011;20477;51.390;8.102;2023-04-03T13:28:30;4.47;;;1.60;;
34212;SDS011;20477;51.390;8.102;2023-04-03T13:31:01;4.47;;;1.15;;
34212;SDS011;20477;51.390;8.102;2023-04-03T13:33:32;3.13;;;1.52;;
34212;SDS011;20477;51.390;8.102;2023-04-03T13:36:05;7.28;;;1.45;;
34212;SDS011;20477;51.390;8.102;2023-04-03T13:38:34;2.13;;;1.17;;
34212;SDS011;20477;51.390;8.102;2023-04-03T13:41:05;3.55;;;1.13;;
34212;SDS011;20477;51.390;8.102;2023-04-03T13:43:48;2.95;;;1.50;;
34212;SDS011;20477;51.390;8.102;2023-04-03T13:46:24;4.45;;;1.45;;
34212;SDS011;20477;51.390;8.102;2023-04-03T13:48:55;3.58;;;1.23;;
34212;SDS011;20477;51.390;8.102;2023-04-03T13:51:25;4.57;;;1.58;;
34212;SDS011;20477;51.390;8.102;2023-04-03T13:53:55;5.65;;;1.88;;
34212;SDS011;20477;51.390;8.102;2023-04-03T13:56:29;4.03;;;1.38;;
34212;SDS011;20477;51.390;8.102;2023-04-03T13:59:01;5.53;;;1.70;;
34212;SDS011;20477;51.390;8.102;2023-04-03T14:01:33;1.83;;;1.33;;
34212;SDS011;20477;51.390;8.102;2023-04-03T14:04:11;5.22;;;2.00;;
34212;SDS011;20477;51.390;8.102;2023-04-03T14:06:42;4.63;;;1.63;;
34212;SDS011;20477;51.390;8.102;2023-04-03T14:09:11;3.58;;;1.48;;
34212;SDS011;20477;51.390;8.102;2023-04-03T14:11:41;5.28;;;2.47;;
34212;SDS011;20477;51.390;8.102;2023-04-03T14:14:11;2.67;;;1.45;;
34212;SDS011;20477;51.390;8.102;2023-04-03T14:16:42;4.05;;;1.70;;
34212;SDS011;20477;51.390;8.102;2023-04-03T14:19:16;6.13;;;1.98;;
34212;SDS011;20477;51.390;8.102;2023-04-03T14:21:46;3.40;;;1.70;;
34212;SDS011;20477;51.390;8.102;2023-04-03T14:24:14;5.35;;;2.10;;
34212;SDS011;20477;51.390;8.102;2023-04-03T14:26:44;1.45;;;1.08;;
34212;SDS011;20477;51.390;8.102;2023-04-03T14:29:13;7.32;;;1.40;;
34212;SDS011;20477;51.390;8.102;2023-04-03T14:31:42;2.58;;;1.35;;
34212;SDS011;20477;51.390;8.102;2023-04-03T14:34:11;5.78;;;4.10;;
34212;SDS011;20477;51.390;8.102;2023-04-03T14:36:39;4.00;;;2.00;;
34212;SDS011;20477;51.390;8.102;2023-04-03T14:39:10;5.82;;;1.83;;
34212;SDS011;20477;51.390;8.102;2023-04-03T14:41:45;6.15;;;1.60;;
34212;SDS011;20477;51.390;8.102;2023-04-03T14:44:15;5.60;;;1.58;;
34212;SDS011;20477;51.390;8.102;2023-04-03T14:46:43;4.57;;;1.77;;
34212;SDS011;20477;51.390;8.102;2023-04-03T14:49:24;6.32;;;1.85;;
34212;SDS011;20477;51.390;8.102;2023-04-03T14:51:54;5.47;;;1.90;;
34212;SDS011;20477;51.390;8.102;2023-04-03T14:54:23;5.60;;;2.30;;
34212;SDS011;20477;51.390;8.102;2023-04-03T14:56:56;2.67;;;1.90;;
34212;SDS011;20477;51.390;8.102;2023-04-03T14:59:26;2.70;;;1.27;;
34212;SDS011;20477;51.390;8.102;2023-04-03T15:01:54;13.43;;;1.13;;
34212;SDS011;20477;51.390;8.102;2023-04-03T15:04:23;2.70;;;1.55;;
34212;SDS011;20477;51.390;8.102;2023-04-03T15:06:51;8.93;;;1.67;;
34212;SDS011;20477;51.390;8.102;2023-04-03T15:09:21;6.10;;;1.52;;
34212;SDS011;20477;51.390;8.102;2023-04-03T15:11:50;8.20;;;2.22;;
34212;SDS011;20477;51.390;8.102;2023-04-03T15:14:21;5.65;;;1.75;;
34212;SDS011;20477;51.390;8.102;2023-04-03T15:17:03;5.55;;;1.92;;
34212;SDS011;20477;51.390;8.102;2023-04-03T15:19:32;5.03;;;1.85;;
34212;SDS011;20477;51.390;8.102;2023-04-03T15:22:04;3.78;;;1.38;;
34212;SDS011;20477;51.390;8.102;2023-04-03T15:24:32;8.55;;;1.50;;
34212;SDS011;20477;51.390;8.102;2023-04-03T15:27:01;1.88;;;1.38;;
34212;SDS011;20477;51.390;8.102;2023-04-03T15:29:30;6.22;;;1.60;;
34212;SDS011;20477;51.390;8.102;2023-04-03T15:31:58;2.00;;;1.20;;
34212;SDS011;20477;51.390;8.102;2023-04-03T15:34:27;3.75;;;1.85;;